Terminal Aerodrome Forecast
Issued by NWS

Home | Current Version | Previous Version | Text Only | Print | Product List | Glossary On
Versions: 1 2 3 4 5 6 7 8 9 10 11 12 13 14 15 16 17 18 19 20 21 22 23 24 25 26 27 28
000
FTUS45 KREV 262345
TAFTVL
TAF
KTVL 262345Z 2700/2724 19010G18KT P6SM VCSH BKN035 OVC050
     FM270500 19008G16KT 5SM -SHRASN BKN025 OVC040
      TEMPO 2705/2709 2SM -SN BKN012 OVC025
     FM270900 19006KT 3SM -SHSN SCT015 BKN030
     FM271600 18010KT P6SM VCSH SCT025 BKN035=

USA.gov is the U.S. government's official web portal to all federal, state and local government web resources and services.